createdAt,value
2018-06-08T00:01:39.076Z,6.90
2018-06-08T00:04:07.902Z,5.65
2018-06-08T00:06:36.741Z,6.33
2018-06-08T00:09:08.264Z,5.75
2018-06-08T00:11:36.759Z,5.58
2018-06-08T00:14:05.554Z,6.05
2018-06-08T00:16:34.069Z,5.58
2018-06-08T00:19:02.895Z,5.90
2018-06-08T00:21:31.372Z,6.40
2018-06-08T00:23:59.986Z,6.08
2018-06-08T00:26:28.825Z,5.80
2018-06-08T00:28:57.757Z,6.40
2018-06-08T00:31:26.236Z,5.83
2018-06-08T00:33:54.717Z,5.92
2018-06-08T00:36:23.200Z,6.60
2018-06-08T00:38:51.698Z,6.08
2018-06-08T00:41:20.189Z,5.72
2018-06-08T00:43:49.033Z,5.65
2018-06-08T00:46:17.513Z,5.08
2018-06-08T00:48:46.028Z,5.42
2018-06-08T00:51:14.525Z,6.25
2018-06-08T00:53:43.016Z,4.90
2018-06-08T00:56:22.913Z,5.80
2018-06-08T00:58:51.463Z,5.97
2018-06-08T01:01:21.089Z,5.67
2018-06-08T01:03:49.891Z,6.08
2018-06-08T01:06:18.373Z,6.62
2018-06-08T01:08:46.844Z,6.25
2018-06-08T01:11:15.348Z,5.90
2018-06-08T01:13:43.852Z,6.25
2018-06-08T01:16:12.367Z,5.72
2018-06-08T01:18:40.872Z,6.17
2018-06-08T01:21:09.392Z,5.62
2018-06-08T01:23:37.903Z,7.03
2018-06-08T01:26:06.726Z,6.37
2018-06-08T01:28:35.549Z,6.65
2018-06-08T01:31:04.381Z,5.30
2018-06-08T01:33:32.896Z,5.45
2018-06-08T01:36:01.746Z,6.58
2018-06-08T01:38:30.269Z,7.58
2018-06-08T01:40:59.084Z,6.65
2018-06-08T01:43:27.564Z,6.78
2018-06-08T01:45:56.050Z,6.62
2018-06-08T01:48:24.534Z,6.55
2018-06-08T01:50:53.032Z,6.60
2018-06-08T01:53:21.514Z,6.55
2018-06-08T01:55:50.029Z,6.67
2018-06-08T01:58:18.508Z,6.78
2018-06-08T02:00:47.011Z,6.80
2018-06-08T02:06:47.204Z,6.40
2018-06-08T02:09:15.953Z,7.30
2018-06-08T02:11:44.501Z,6.60
2018-06-08T02:14:13.008Z,6.70
2018-06-08T02:16:41.842Z,6.37
2018-06-08T02:19:10.361Z,6.80
2018-06-08T02:21:39.211Z,6.83
2018-06-08T02:24:07.760Z,6.40
2018-06-08T02:26:36.284Z,7.70
2018-06-08T02:29:05.097Z,6.60
2018-06-08T02:31:33.593Z,6.33
2018-06-08T02:34:02.072Z,7.42
2018-06-08T02:36:30.573Z,7.25
2018-06-08T02:38:59.092Z,7.62
2018-06-08T02:41:27.597Z,7.15
2018-06-08T02:43:56.088Z,7.03
2018-06-08T02:46:24.563Z,7.15
2018-06-08T02:48:53.388Z,6.65
2018-06-08T02:51:22.856Z,6.85
2018-06-08T02:53:51.326Z,6.75
2018-06-08T02:56:19.800Z,6.90
2018-06-08T02:58:48.289Z,7.03
2018-06-08T03:01:16.788Z,6.50
2018-06-08T03:03:45.612Z,6.80
2018-06-08T03:06:14.111Z,7.42
2018-06-08T03:08:42.635Z,6.17
2018-06-08T03:11:12.121Z,7.10
2018-06-08T03:13:40.592Z,6.95
2018-06-08T03:16:09.077Z,6.83
2018-06-08T03:18:37.594Z,7.00
2018-06-08T03:21:06.777Z,6.90
2018-06-08T03:23:35.273Z,6.17
2018-06-08T03:26:03.772Z,6.95
2018-06-08T03:28:32.361Z,6.85
2018-06-08T03:31:00.841Z,5.75
2018-06-08T03:33:29.344Z,7.40
2018-06-08T03:35:57.860Z,6.53
2018-06-08T03:38:26.533Z,5.75
2018-06-08T03:40:55.013Z,6.50
2018-06-08T03:43:23.498Z,7.00
2018-06-08T03:45:52.642Z,7.37
2018-06-08T03:48:21.141Z,7.10
2018-06-08T03:50:49.613Z,6.72
2018-06-08T03:53:18.097Z,7.08
2018-06-08T03:55:46.940Z,6.35
2018-06-08T03:58:15.460Z,7.55
2018-06-08T04:00:43.944Z,7.03
2018-06-08T04:03:12.433Z,6.97
2018-06-08T04:05:41.272Z,7.97
2018-06-08T04:08:09.753Z,7.15
2018-06-08T04:10:38.589Z,12.43
2018-06-08T04:13:07.069Z,7.90
2018-06-08T04:15:36.428Z,7.97
2018-06-08T04:18:05.388Z,7.83
2018-06-08T04:20:33.881Z,7.87
2018-06-08T04:23:02.360Z,7.78
2018-06-08T04:25:30.840Z,7.72
2018-06-08T04:27:59.349Z,7.83
2018-06-08T04:30:27.845Z,7.55
2018-06-08T04:32:56.396Z,7.92
2018-06-08T04:35:25.023Z,7.90
2018-06-08T04:37:53.513Z,7.50
2018-06-08T04:40:22.035Z,7.85
2018-06-08T04:42:50.690Z,7.47
2018-06-08T04:45:19.170Z,7.90
2018-06-08T04:47:47.655Z,6.58
2018-06-08T04:50:16.485Z,7.33
2018-06-08T04:52:44.969Z,8.63
2018-06-08T04:55:13.493Z,16.97
2018-06-08T04:57:42.005Z,10.13
2018-06-08T05:00:10.887Z,9.00
2018-06-08T05:02:39.593Z,9.30
2018-06-08T05:05:08.474Z,9.08
2018-06-08T05:07:36.988Z,8.78
2018-06-08T05:10:05.865Z,8.68
2018-06-08T05:12:34.689Z,9.20
2018-06-08T05:15:03.685Z,7.85
2018-06-08T05:17:32.942Z,10.50
2018-06-08T05:20:01.443Z,9.33
2018-06-08T05:22:29.966Z,7.78
2018-06-08T05:24:58.473Z,8.48
2018-06-08T05:27:26.960Z,9.83
2018-06-08T05:29:55.433Z,8.00
2018-06-08T05:32:24.224Z,9.68
2018-06-08T05:34:53.699Z,8.10
2018-06-08T05:37:22.489Z,9.25
2018-06-08T05:39:52.700Z,8.35
2018-06-08T05:42:22.570Z,8.10
2018-06-08T05:44:51.396Z,10.00
2018-06-08T05:47:19.929Z,11.45
2018-06-08T05:49:48.764Z,8.15
2018-06-08T05:52:17.253Z,8.23
2018-06-08T05:54:45.745Z,8.68
2018-06-08T05:57:14.285Z,8.73
2018-06-08T05:59:43.092Z,8.75
2018-06-08T06:02:11.572Z,8.83
2018-06-08T06:04:40.053Z,8.35
2018-06-08T06:07:10.105Z,8.85
2018-06-08T06:09:39.580Z,8.30
2018-06-08T06:12:08.131Z,9.85
2018-06-08T06:14:36.656Z,11.30
2018-06-08T06:17:05.236Z,7.50
2018-06-08T06:19:33.750Z,12.20
2018-06-08T06:22:03.049Z,8.53
2018-06-08T06:24:32.273Z,8.90
2018-06-08T06:27:00.761Z,9.38
2018-06-08T06:29:29.289Z,8.08
2018-06-08T06:31:57.760Z,9.30
2018-06-08T06:34:26.269Z,8.80
2018-06-08T06:36:54.760Z,8.60
2018-06-08T06:39:23.269Z,8.50
2018-06-08T06:41:53.147Z,8.65
2018-06-08T06:44:22.004Z,8.98
2018-06-08T06:46:50.838Z,7.95
2018-06-08T06:49:19.343Z,8.75
2018-06-08T06:51:47.841Z,8.93
2018-06-08T06:54:16.320Z,8.35
2018-06-08T06:56:44.806Z,8.85
2018-06-08T06:59:14.215Z,9.10
2018-06-08T07:01:43.247Z,9.60
2018-06-08T07:04:11.756Z,8.63
2018-06-08T07:06:40.266Z,9.13
2018-06-08T07:09:09.787Z,9.00
2018-06-08T07:11:39.135Z,9.13
2018-06-08T07:14:08.929Z,7.83
2018-06-08T07:16:37.409Z,8.18
2018-06-08T07:19:05.888Z,8.25
2018-06-08T07:21:34.400Z,8.85
2018-06-08T07:24:02.959Z,9.30
2018-06-08T07:26:32.090Z,8.70
2018-06-08T07:29:00.292Z,8.50
2018-06-08T07:31:28.556Z,8.80
2018-06-08T07:33:56.887Z,9.97
2018-06-08T07:36:25.102Z,9.43
2018-06-08T07:38:53.339Z,8.00
2018-06-08T07:41:21.569Z,9.00
2018-06-08T07:43:50.096Z,9.60
2018-06-08T07:46:18.683Z,9.00
2018-06-08T07:48:47.318Z,10.03
2018-06-08T07:51:15.953Z,10.17
2018-06-08T07:53:44.542Z,8.50
2018-06-08T07:56:13.261Z,8.20
2018-06-08T07:59:44.129Z,7.97
2018-06-08T08:02:12.360Z,8.13
2018-06-08T08:04:40.948Z,9.27
2018-06-08T08:07:09.161Z,8.20
2018-06-08T08:09:37.417Z,8.50
2018-06-08T08:12:06.375Z,7.73
2018-06-08T08:14:34.599Z,7.20
2018-06-08T08:17:03.165Z,10.03
2018-06-08T08:19:31.414Z,7.00
2018-06-08T08:21:59.674Z,7.93
2018-06-08T08:24:28.228Z,7.47
2018-06-08T08:26:56.463Z,8.47
2018-06-08T08:29:24.707Z,7.10
2018-06-08T08:31:52.913Z,7.80
2018-06-08T08:34:21.528Z,7.33
2018-06-08T08:36:49.787Z,7.67
2018-06-08T08:39:18.114Z,7.40
2018-06-08T08:41:46.668Z,7.27
2018-06-08T08:44:15.216Z,6.70
2018-06-08T08:47:46.305Z,7.67
2018-06-08T08:50:14.519Z,7.20
2018-06-08T08:52:42.749Z,7.00
2018-06-08T08:55:10.985Z,6.73
2018-06-08T08:57:39.211Z,6.63
2018-06-08T09:00:07.458Z,6.07
2018-06-08T09:02:36.008Z,6.00
2018-06-08T09:06:06.862Z,7.83
2018-06-08T09:08:35.428Z,6.57
2018-06-08T09:11:04.005Z,6.77
2018-06-08T09:13:32.224Z,6.10
2018-06-08T09:16:00.447Z,6.70
2018-06-08T09:18:29.045Z,6.80
2018-06-08T09:20:57.996Z,6.30
2018-06-08T09:23:26.223Z,6.77
2018-06-08T09:25:54.431Z,5.67
2018-06-08T09:28:22.778Z,7.60
2018-06-08T09:30:51.017Z,5.87
2018-06-08T09:33:19.475Z,6.63
2018-06-08T09:35:47.703Z,5.60
2018-06-08T09:38:15.920Z,5.43
2018-06-08T09:40:45.393Z,7.03
2018-06-08T09:43:13.972Z,6.10
2018-06-08T09:45:43.549Z,5.53
2018-06-08T09:48:11.770Z,5.83
2018-06-08T09:51:10.771Z,6.20
2018-06-08T09:53:38.993Z,6.83
2018-06-08T09:56:07.567Z,6.63
2018-06-08T09:58:35.801Z,7.10
2018-06-08T10:01:04.397Z,8.00
2018-06-08T10:03:32.614Z,6.23
2018-06-08T10:06:00.821Z,5.70
2018-06-08T10:08:29.032Z,5.10
2018-06-08T10:10:57.245Z,5.37
2018-06-08T10:13:26.076Z,4.70
2018-06-08T10:15:54.310Z,5.80
2018-06-08T10:18:22.515Z,5.47
2018-06-08T10:20:50.739Z,5.90
2018-06-08T10:23:19.296Z,5.00
2018-06-08T10:25:47.513Z,5.50
2018-06-08T10:28:15.749Z,6.10
2018-06-08T10:30:44.034Z,5.57
2018-06-08T10:33:12.285Z,5.50
2018-06-08T10:35:40.508Z,5.63
2018-06-08T10:38:08.744Z,5.57
2018-06-08T10:40:37.265Z,6.27
2018-06-08T10:43:05.505Z,6.63
2018-06-08T10:48:33.624Z,6.00
2018-06-08T10:51:02.208Z,5.53
2018-06-08T10:53:31.020Z,6.80
2018-06-08T10:55:59.248Z,6.87
2018-06-08T10:58:27.480Z,6.43
2018-06-08T11:00:55.724Z,6.00
2018-06-08T11:03:24.452Z,6.13
2018-06-08T11:05:53.141Z,5.70
2018-06-08T11:08:21.378Z,4.93
2018-06-08T11:10:49.810Z,6.47
2018-06-08T11:13:18.049Z,5.90
2018-06-08T11:15:46.323Z,5.33
2018-06-08T11:18:15.549Z,5.30
2018-06-08T11:20:43.760Z,5.77
2018-06-08T11:23:11.985Z,5.67
2018-06-08T11:25:41.080Z,5.10
2018-06-08T11:28:09.606Z,5.33
2018-06-08T11:30:37.806Z,5.33
2018-06-08T11:33:06.729Z,6.13
2018-06-08T11:35:35.216Z,6.00
2018-06-08T11:38:03.448Z,5.87
2018-06-08T11:40:32.029Z,6.23
2018-06-08T11:43:01.018Z,5.37
2018-06-08T11:45:29.240Z,5.97
2018-06-08T11:47:57.797Z,5.70
2018-06-08T11:50:26.023Z,5.40
2018-06-08T11:52:54.287Z,5.53
2018-06-08T11:55:22.507Z,5.30
2018-06-08T11:57:50.752Z,5.90
2018-06-08T12:00:19.028Z,5.53
2018-06-08T12:02:54.121Z,5.33
2018-06-08T12:05:22.341Z,5.13
2018-06-08T12:07:50.593Z,5.77
2018-06-08T12:10:19.413Z,5.70
2018-06-08T12:14:12.781Z,4.63
2018-06-08T12:16:41.745Z,5.43
2018-06-08T12:19:10.304Z,4.97
2018-06-08T12:21:38.585Z,5.13
2018-06-08T12:24:07.196Z,4.87
2018-06-08T12:26:35.548Z,5.37
2018-06-08T12:30:28.266Z,6.83
2018-06-08T12:32:56.610Z,6.13
2018-06-08T12:35:24.823Z,4.90
2018-06-08T12:37:53.040Z,4.50
2018-06-08T12:40:21.244Z,4.10
2018-06-08T12:42:50.484Z,4.67
2018-06-08T12:45:19.625Z,5.20
2018-06-08T12:47:47.858Z,4.50
2018-06-08T12:50:16.412Z,4.90
2018-06-08T12:52:44.900Z,5.70
2018-06-08T12:55:13.985Z,4.83
2018-06-08T12:57:42.208Z,4.60
2018-06-08T13:00:11.316Z,4.10
2018-06-08T13:02:39.578Z,4.20
2018-06-08T13:05:07.900Z,4.97
2018-06-08T13:07:36.158Z,5.20
2018-06-08T13:10:04.409Z,5.60
2018-06-08T13:12:32.614Z,4.67
2018-06-08T13:15:00.898Z,5.20
2018-06-08T13:17:29.114Z,4.53
2018-06-08T13:19:57.352Z,4.90
2018-06-08T13:22:25.582Z,4.60
2018-06-08T13:24:54.227Z,4.70
2018-06-08T13:27:22.598Z,5.40
2018-06-08T13:29:50.839Z,4.20
2018-06-08T13:32:19.441Z,4.93
2018-06-08T13:34:48.343Z,4.87
2018-06-08T13:37:16.603Z,5.50
2018-06-08T13:39:44.843Z,5.63
2018-06-08T13:42:13.093Z,5.20
2018-06-08T13:44:41.317Z,5.40
2018-06-08T13:47:24.237Z,6.13
2018-06-08T13:49:53.636Z,5.20
2018-06-08T13:52:21.882Z,5.13
2018-06-08T13:54:50.114Z,4.90
2018-06-08T13:57:18.324Z,5.50
2018-06-08T13:59:46.589Z,5.70
2018-06-08T14:02:14.809Z,4.87
2018-06-08T14:04:43.054Z,5.27
2018-06-08T14:07:11.264Z,4.70
2018-06-08T14:09:39.493Z,5.47
2018-06-08T14:12:07.713Z,5.30
2018-06-08T14:14:35.937Z,5.80
2018-06-08T14:17:04.340Z,5.17
2018-06-08T14:19:32.544Z,5.37
2018-06-08T14:22:00.752Z,5.70
2018-06-08T14:24:28.969Z,5.63
2018-06-08T14:26:57.772Z,5.50
2018-06-08T14:29:26.007Z,5.30
2018-06-08T14:31:54.237Z,6.07
2018-06-08T14:34:22.485Z,5.50
2018-06-08T14:36:51.398Z,6.23
2018-06-08T14:39:19.627Z,5.77
2018-06-08T14:41:47.866Z,6.40
2018-06-08T14:44:16.076Z,5.30
2018-06-08T14:46:44.546Z,6.03
2018-06-08T14:49:12.801Z,5.40
2018-06-08T14:51:42.256Z,5.40
2018-06-08T14:54:10.481Z,5.30
2018-06-08T14:56:38.688Z,5.60
2018-06-08T14:59:06.937Z,5.40
2018-06-08T15:01:35.365Z,5.60
2018-06-08T15:04:04.249Z,5.63
2018-06-08T15:06:32.463Z,4.43
2018-06-08T15:09:00.689Z,5.90
2018-06-08T15:11:28.904Z,5.37
2018-06-08T15:13:57.120Z,5.37
2018-06-08T15:16:25.341Z,5.77
2018-06-08T15:18:53.569Z,5.37
2018-06-08T15:21:21.780Z,6.23
2018-06-08T15:23:49.990Z,5.63
2018-06-08T15:26:18.217Z,5.33
2018-06-08T15:28:47.813Z,4.87
2018-06-08T15:31:16.020Z,5.30
2018-06-08T15:33:44.238Z,5.17
2018-06-08T15:36:12.467Z,5.20
2018-06-08T15:38:40.686Z,5.63
2018-06-08T15:41:09.252Z,5.07
2018-06-08T15:43:37.461Z,5.20
2018-06-08T15:46:06.367Z,4.93
2018-06-08T15:48:34.585Z,4.87
2018-06-08T15:51:02.853Z,5.50
2018-06-08T15:53:31.445Z,5.70
2018-06-08T15:55:59.902Z,5.40
2018-06-08T15:58:28.286Z,5.50
2018-06-08T16:00:56.537Z,4.80
2018-06-08T16:03:24.921Z,5.60
2018-06-08T16:05:53.126Z,5.63
2018-06-08T16:08:21.374Z,5.67
2018-06-08T16:10:49.969Z,5.20
2018-06-08T16:13:19.848Z,7.10
2018-06-08T16:15:48.096Z,6.97
2018-06-08T16:18:16.304Z,6.03
2018-06-08T16:20:44.517Z,5.23
2018-06-08T16:23:12.790Z,6.10
2018-06-08T16:25:41.699Z,5.20
2018-06-08T16:28:10.881Z,5.30
2018-06-08T16:33:37.996Z,5.43
2018-06-08T16:36:06.257Z,5.03
2018-06-08T16:38:34.678Z,6.10
2018-06-08T16:41:04.157Z,5.80
2018-06-08T16:43:32.360Z,5.07
2018-06-08T16:46:00.595Z,5.73
2018-06-08T16:48:28.792Z,5.50
2018-06-08T16:50:57.018Z,5.67
2018-06-08T16:53:25.273Z,5.57
2018-06-08T16:55:53.575Z,5.07
2018-06-08T16:58:21.928Z,5.50
2018-06-08T17:00:50.507Z,5.67
2018-06-08T17:03:19.977Z,5.80
2018-06-08T17:05:48.186Z,5.70
2018-06-08T17:08:16.436Z,6.90
2018-06-08T17:10:44.661Z,5.77
2018-06-08T17:13:12.884Z,6.40
2018-06-08T17:15:41.089Z,6.20
2018-06-08T17:18:09.647Z,6.10
2018-06-08T17:20:37.870Z,6.10
2018-06-08T17:23:06.087Z,6.53
2018-06-08T17:25:35.289Z,6.07
2018-06-08T17:28:03.566Z,6.13
2018-06-08T17:30:31.773Z,5.60
2018-06-08T17:32:59.984Z,6.30
2018-06-08T17:35:28.192Z,5.47
2018-06-08T17:37:56.406Z,6.53
2018-06-08T17:40:24.960Z,7.00
2018-06-08T17:42:53.181Z,6.30
2018-06-08T17:45:21.773Z,6.30
2018-06-08T17:47:50.947Z,6.57
2018-06-08T17:50:19.212Z,6.53
2018-06-08T17:52:47.487Z,6.53
2018-06-08T17:55:15.729Z,7.37
2018-06-08T17:57:43.954Z,6.87
2018-06-08T18:00:12.664Z,7.27
2018-06-08T18:02:41.501Z,6.27
2018-06-08T18:05:10.101Z,6.43
2018-06-08T18:07:39.038Z,6.20
2018-06-08T18:10:07.279Z,6.43
2018-06-08T18:12:36.237Z,6.40
2018-06-08T18:15:08.956Z,6.60
2018-06-08T18:17:37.272Z,6.67
2018-06-08T18:20:05.799Z,5.93
2018-06-08T18:22:34.018Z,7.60
2018-06-08T18:25:02.287Z,7.80
2018-06-08T18:27:30.540Z,7.70
2018-06-08T18:29:58.996Z,7.07
2018-06-08T18:32:27.252Z,6.50
2018-06-08T18:34:56.130Z,7.80
2018-06-08T18:37:24.878Z,6.10
2018-06-08T18:39:53.552Z,8.30
2018-06-08T18:42:22.321Z,6.27
2018-06-08T18:44:50.596Z,6.60
2018-06-08T18:47:18.854Z,6.33
2018-06-08T18:49:47.233Z,6.83
2018-06-08T18:52:15.574Z,6.37
2018-06-08T18:54:43.832Z,6.10
2018-06-08T18:57:12.455Z,5.57
2018-06-08T19:02:29.593Z,5.63
2018-06-08T19:04:58.753Z,5.33
2018-06-08T19:07:27.862Z,5.20
2018-06-08T19:09:58.197Z,4.67
2018-06-08T19:12:29.029Z,4.00
2018-06-08T19:14:58.741Z,4.90
2018-06-08T19:17:26.992Z,4.20
2018-06-08T19:19:56.265Z,12.77
2018-06-08T19:22:24.722Z,4.70
2018-06-08T19:24:52.964Z,4.50
2018-06-08T19:27:21.233Z,3.70
2018-06-08T19:29:49.801Z,3.33
2018-06-08T19:32:18.054Z,3.30
2018-06-08T19:34:48.021Z,3.57
2018-06-08T19:37:20.191Z,4.20
2018-06-08T19:39:48.901Z,4.17
2018-06-08T19:42:17.992Z,3.53
2018-06-08T19:44:46.218Z,3.93
2018-06-08T19:47:14.480Z,4.13
2018-06-08T19:49:42.724Z,3.60
2018-06-08T19:52:11.112Z,4.90
2018-06-08T19:54:39.374Z,4.47
2018-06-08T19:57:07.965Z,4.37
2018-06-08T19:59:36.579Z,4.63
2018-06-08T20:02:05.860Z,5.10
2018-06-08T20:04:34.100Z,4.70
2018-06-08T20:07:03.139Z,4.60
2018-06-08T20:09:31.341Z,5.87
2018-06-08T20:11:59.549Z,5.40
2018-06-08T20:14:28.105Z,5.30
2018-06-08T20:16:56.315Z,5.23
2018-06-08T20:19:24.518Z,6.20
2018-06-08T20:21:52.739Z,5.80
2018-06-08T20:24:20.984Z,5.87
2018-06-08T20:26:49.542Z,5.73
2018-06-08T20:29:17.745Z,6.50
2018-06-08T20:31:45.967Z,5.80
2018-06-08T20:34:14.194Z,6.07
2018-06-08T20:36:42.577Z,7.10
2018-06-08T20:39:15.099Z,6.87
2018-06-08T20:41:43.308Z,7.10
2018-06-08T20:44:11.629Z,7.53
2018-06-08T20:46:40.168Z,7.00
2018-06-08T20:49:08.716Z,6.60
2018-06-08T20:51:36.903Z,7.20
2018-06-08T20:54:05.844Z,5.70
2018-06-08T20:56:36.467Z,6.63
2018-06-08T20:59:05.029Z,6.50
2018-06-08T21:01:33.236Z,7.70
2018-06-08T21:04:03.889Z,7.20
2018-06-08T21:06:32.797Z,7.67
2018-06-08T21:09:01.007Z,7.30
2018-06-08T21:11:30.252Z,7.53
2018-06-08T21:13:58.647Z,7.57
2018-06-08T21:16:26.902Z,7.03
2018-06-08T21:18:55.172Z,7.73
2018-06-08T21:21:25.148Z,7.27
2018-06-08T21:23:53.909Z,7.70
2018-06-08T21:26:22.145Z,7.10
2018-06-08T21:28:50.348Z,8.23
2018-06-08T21:31:18.605Z,8.60
2018-06-08T21:33:46.882Z,8.50
2018-06-08T21:36:15.229Z,7.40
2018-06-08T21:38:43.527Z,8.20
2018-06-08T21:41:12.348Z,7.87
2018-06-08T21:43:40.671Z,8.87
2018-06-08T21:46:10.121Z,8.10
2018-06-08T21:48:38.369Z,8.17
2018-06-08T21:51:06.622Z,7.50
2018-06-08T21:53:34.842Z,7.83
2018-06-08T21:56:03.084Z,7.60
2018-06-08T21:58:31.300Z,8.57
2018-06-08T22:00:59.538Z,8.00
2018-06-08T22:03:28.426Z,7.40
2018-06-08T22:05:56.988Z,7.80
2018-06-08T22:08:25.260Z,6.93
2018-06-08T22:10:53.891Z,7.77
2018-06-08T22:13:22.953Z,8.65
2018-06-08T22:15:51.936Z,8.47
2018-06-08T22:18:20.615Z,8.13
2018-06-08T22:20:49.249Z,9.37
2018-06-08T22:23:18.746Z,8.83
2018-06-08T22:26:09.081Z,8.60
2018-06-08T23:25:17.205Z,10.35
2018-06-08T23:27:46.052Z,10.15
2018-06-08T23:30:15.405Z,9.20
2018-06-08T23:32:43.923Z,10.30
2018-06-08T23:35:13.441Z,9.90
2018-06-08T23:37:44.877Z,9.73
2018-06-08T23:40:16.685Z,10.03
2018-06-08T23:42:45.335Z,10.10
2018-06-08T23:45:14.220Z,10.60
2018-06-08T23:47:44.601Z,11.28
2018-06-08T23:50:13.140Z,10.48
2018-06-08T23:52:42.902Z,10.93
2018-06-08T23:55:11.629Z,10.60
2018-06-08T23:57:41.796Z,10.53
